Terminal Aerodrome Forecast
Issued by NWS Wilmington, OH

Current Version | Previous Version | Graphics & Text | Print | Product List | Glossary On
Versions: 1 2 3 4 5 6 7 8 9 10 11 12 13 14 15 16 17 18 19
304
FTUS41 KILN 250809 AAC
TAFILN
TAF AMD
KILN 250809Z 2508/2606 21008KT P6SM SCT050 BKN250
     FM251600 23010G18KT P6SM SCT040
     FM260000 27006KT P6SM SCT050 BKN250
     FM260500 32006KT P6SM SCT050 BKN250=

USA.gov is the U.S. government's official web portal to all federal, state and local government web resources and services.